sensor_id;sensor_type;location;lat;lon;timestamp;pressure;altitude;pressure_sealevel;temperature;humidity
10127;BME280;13080;42.608;23.362;2024-03-02T00:01:35;152496.19;;;5.51;100.00
10127;BME280;13080;42.608;23.362;2024-03-02T00:04:04;152501.38;;;5.53;100.00
10127;BME280;13080;42.608;23.362;2024-03-02T00:06:33;152485.88;;;5.47;100.00
10127;BME280;13080;42.608;23.362;2024-03-02T00:09:01;152496.19;;;5.51;100.00
10127;BME280;13080;42.608;23.362;2024-03-02T00:11:28;152480.72;;;5.45;100.00
10127;BME280;13080;42.608;23.362;2024-03-02T00:13:55;152489.72;;;5.49;100.00
10127;BME280;13080;42.608;23.362;2024-03-02T00:16:22;152500.09;;;5.53;100.00
10127;BME280;13080;42.608;23.362;2024-03-02T00:18:50;152501.38;;;5.53;100.00
10127;BME280;13080;42.608;23.362;2024-03-02T00:21:17;152524.66;;;5.62;100.00
10127;BME280;13080;42.608;23.362;2024-03-02T00:23:48;152502.72;;;5.54;100.00
10127;BME280;13080;42.608;23.362;2024-03-02T00:26:17;152488.44;;;5.48;100.00
10127;BME280;13080;42.608;23.362;2024-03-02T00:28:44;152485.88;;;5.47;100.00
10127;BME280;13080;42.608;23.362;2024-03-02T00:31:12;152492.34;;;5.50;100.00
10127;BME280;13080;42.608;23.362;2024-03-02T00:33:41;152496.19;;;5.51;100.00
10127;BME280;13080;42.608;23.362;2024-03-02T00:36:10;152488.44;;;5.48;100.00
10127;BME280;13080;42.608;23.362;2024-03-02T00:38:44;152479.38;;;5.45;100.00
10127;BME280;13080;42.608;23.362;2024-03-02T00:41:17;152472.91;;;5.42;100.00
10127;BME280;13080;42.608;23.362;2024-03-02T00:43:47;152494.91;;;5.51;100.00
10127;BME280;13080;42.608;23.362;2024-03-02T00:46:19;152485.88;;;5.47;100.00
10127;BME280;13080;42.608;23.362;2024-03-02T00:48:53;152472.91;;;5.42;100.00
10127;BME280;13080;42.608;23.362;2024-03-02T00:51:21;152463.91;;;5.38;100.00
10127;BME280;13080;42.608;23.362;2024-03-02T00:53:48;152461.28;;;5.37;100.00
10127;BME280;13080;42.608;23.362;2024-03-02T00:56:16;152483.28;;;5.46;100.00
10127;BME280;13080;42.608;23.362;2024-03-02T00:58:44;152489.72;;;5.49;100.00
10127;BME280;13080;42.608;23.362;2024-03-02T01:01:11;152487.16;;;5.48;100.00
10127;BME280;13080;42.608;23.362;2024-03-02T01:03:38;152507.84;;;5.56;100.00
10127;BME280;13080;42.608;23.362;2024-03-02T01:06:05;152505.28;;;5.55;100.00
10127;BME280;13080;42.608;23.362;2024-03-02T01:08:33;152502.72;;;5.54;100.00
10127;BME280;13080;42.608;23.362;2024-03-02T01:11:01;152538.91;;;5.68;100.00
10127;BME280;13080;42.608;23.362;2024-03-02T01:13:29;152551.84;;;5.73;100.00
10127;BME280;13080;42.608;23.362;2024-03-02T01:15:56;152548.00;;;5.72;100.00
10127;BME280;13080;42.608;23.362;2024-03-02T01:18:24;152551.84;;;5.73;100.00
10127;BME280;13080;42.608;23.362;2024-03-02T01:20:50;152548.00;;;5.72;100.00
10127;BME280;13080;42.608;23.362;2024-03-02T01:23:18;152560.91;;;5.77;100.00
10127;BME280;13080;42.608;23.362;2024-03-02T01:25:46;152558.31;;;5.76;100.00
10127;BME280;13080;42.608;23.362;2024-03-02T01:28:13;152563.47;;;5.78;100.00
10127;BME280;13080;42.608;23.362;2024-03-02T01:30:41;152554.47;;;5.74;100.00
10127;BME280;13080;42.608;23.362;2024-03-02T01:33:08;152573.84;;;5.82;100.00
10127;BME280;13080;42.608;23.362;2024-03-02T01:35:36;152555.75;;;5.75;100.00
10127;BME280;13080;42.608;23.362;2024-03-02T01:38:03;152557.03;;;5.75;100.00
10127;BME280;13080;42.608;23.362;2024-03-02T01:40:32;152562.19;;;5.77;100.00
10127;BME280;13080;42.608;23.362;2024-03-02T01:42:58;152545.38;;;5.71;100.00
10127;BME280;13080;42.608;23.362;2024-03-02T01:45:25;152582.91;;;5.86;100.00
10127;BME280;13080;42.608;23.362;2024-03-02T01:47:54;152558.31;;;5.76;100.00
10127;BME280;13080;42.608;23.362;2024-03-02T01:50:25;152553.13;;;5.74;100.00
10127;BME280;13080;42.608;23.362;2024-03-02T01:52:52;152546.66;;;5.71;100.00
10127;BME280;13080;42.608;23.362;2024-03-02T01:55:20;152550.56;;;5.73;100.00
10127;BME280;13080;42.608;23.362;2024-03-02T01:57:47;152538.91;;;5.68;100.00
10127;BME280;13080;42.608;23.362;2024-03-02T02:00:15;152532.44;;;5.66;100.00
10127;BME280;13080;42.608;23.362;2024-03-02T02:02:42;152549.28;;;5.72;100.00
10127;BME280;13080;42.608;23.362;2024-03-02T02:05:11;152549.28;;;5.72;100.00
10127;BME280;13080;42.608;23.362;2024-03-02T02:07:38;152560.91;;;5.77;100.00
10127;BME280;13080;42.608;23.362;2024-03-02T02:10:05;152532.44;;;5.66;100.00
10127;BME280;13080;42.608;23.362;2024-03-02T02:12:32;152542.81;;;5.70;100.00
10127;BME280;13080;42.608;23.362;2024-03-02T02:14:59;152519.47;;;5.60;100.00
10127;BME280;13080;42.608;23.362;2024-03-02T02:17:26;152498.81;;;5.52;100.00
10127;BME280;13080;42.608;23.362;2024-03-02T02:19:53;152505.28;;;5.55;100.00
10127;BME280;13080;42.608;23.362;2024-03-02T02:22:21;152510.44;;;5.57;100.00
10127;BME280;13080;42.608;23.362;2024-03-02T02:24:48;152514.34;;;5.58;100.00
10127;BME280;13080;42.608;23.362;2024-03-02T02:27:15;152523.38;;;5.62;100.00
10127;BME280;13080;42.608;23.362;2024-03-02T02:29:42;152518.19;;;5.60;100.00
10127;BME280;13080;42.608;23.362;2024-03-02T02:32:09;152516.91;;;5.59;100.00
10127;BME280;13080;42.608;23.362;2024-03-02T02:34:36;152523.38;;;5.62;100.00
10127;BME280;13080;42.608;23.362;2024-03-02T02:37:03;152524.66;;;5.62;100.00
10127;BME280;13080;42.608;23.362;2024-03-02T02:39:31;152513.00;;;5.58;100.00
10127;BME280;13080;42.608;23.362;2024-03-02T02:41:58;152522.09;;;5.61;100.00
10127;BME280;13080;42.608;23.362;2024-03-02T02:44:26;152532.44;;;5.66;100.00
10127;BME280;13080;42.608;23.362;2024-03-02T02:46:53;152533.72;;;5.66;100.00
10127;BME280;13080;42.608;23.362;2024-03-02T02:49:20;152551.84;;;5.73;100.00
10127;BME280;13080;42.608;23.362;2024-03-02T02:51:47;152540.19;;;5.69;100.00
10127;BME280;13080;42.608;23.362;2024-03-02T02:54:13;152544.09;;;5.70;100.00
10127;BME280;13080;42.608;23.362;2024-03-02T02:56:42;152567.38;;;5.79;100.00
10127;BME280;13080;42.608;23.362;2024-03-02T02:59:09;152546.66;;;5.71;100.00
10127;BME280;13080;42.608;23.362;2024-03-02T03:01:35;152554.47;;;5.74;100.00
10127;BME280;13080;42.608;23.362;2024-03-02T03:04:03;152554.47;;;5.74;100.00
10127;BME280;13080;42.608;23.362;2024-03-02T03:06:30;152555.75;;;5.75;100.00
10127;BME280;13080;42.608;23.362;2024-03-02T03:08:57;152545.38;;;5.71;100.00
10127;BME280;13080;42.608;23.362;2024-03-02T03:11:24;152540.19;;;5.69;100.00
10127;BME280;13080;42.608;23.362;2024-03-02T03:13:53;152532.44;;;5.66;100.00
10127;BME280;13080;42.608;23.362;2024-03-02T03:16:21;152550.56;;;5.73;100.00
10127;BME280;13080;42.608;23.362;2024-03-02T03:18:48;152550.56;;;5.73;100.00
10127;BME280;13080;42.608;23.362;2024-03-02T03:21:17;152551.84;;;5.73;100.00
10127;BME280;13080;42.608;23.362;2024-03-02T03:23:43;152546.66;;;5.71;100.00
10127;BME280;13080;42.608;23.362;2024-03-02T03:26:10;152560.91;;;5.77;100.00
10127;BME280;13080;42.608;23.362;2024-03-02T03:28:37;152562.19;;;5.77;100.00
10127;BME280;13080;42.608;23.362;2024-03-02T03:31:07;152557.03;;;5.75;100.00
10127;BME280;13080;42.608;23.362;2024-03-02T03:33:34;152604.97;;;5.94;100.00
10127;BME280;13080;42.608;23.362;2024-03-02T03:36:01;152581.59;;;5.85;100.00
10127;BME280;13080;42.608;23.362;2024-03-02T03:38:29;152563.47;;;5.78;100.00
10127;BME280;13080;42.608;23.362;2024-03-02T03:40:56;152588.09;;;5.88;100.00
10127;BME280;13080;42.608;23.362;2024-03-02T03:43:23;152557.03;;;5.75;100.00
10127;BME280;13080;42.608;23.362;2024-03-02T03:45:49;152535.03;;;5.67;100.00
10127;BME280;13080;42.608;23.362;2024-03-02T03:48:18;152514.34;;;5.58;100.00
10127;BME280;13080;42.608;23.362;2024-03-02T03:50:45;152488.44;;;5.48;100.00
10127;BME280;13080;42.608;23.362;2024-03-02T03:53:12;152470.34;;;5.41;100.00
10127;BME280;13080;42.608;23.362;2024-03-02T03:55:40;152498.81;;;5.52;100.00
10127;BME280;13080;42.608;23.362;2024-03-02T03:58:07;152496.19;;;5.51;100.00
10127;BME280;13080;42.608;23.362;2024-03-02T04:00:33;152489.72;;;5.49;100.00
10127;BME280;13080;42.608;23.362;2024-03-02T04:03:00;152492.34;;;5.50;100.00
10127;BME280;13080;42.608;23.362;2024-03-02T04:05:29;152509.16;;;5.56;100.00
10127;BME280;13080;42.608;23.362;2024-03-02T04:07:56;152540.19;;;5.69;100.00
10127;BME280;13080;42.608;23.362;2024-03-02T04:10:23;152524.66;;;5.62;100.00
10127;BME280;13080;42.608;23.362;2024-03-02T04:12:50;152479.38;;;5.45;100.00
10127;BME280;13080;42.608;23.362;2024-03-02T04:15:17;152467.75;;;5.40;100.00
10127;BME280;13080;42.608;23.362;2024-03-02T04:17:45;152457.44;;;5.36;100.00
10127;BME280;13080;42.608;23.362;2024-03-02T04:20:12;152453.53;;;5.34;100.00
10127;BME280;13080;42.608;23.362;2024-03-02T04:22:40;152466.47;;;5.39;100.00
10127;BME280;13080;42.608;23.362;2024-03-02T04:25:08;152462.56;;;5.38;100.00
10127;BME280;13080;42.608;23.362;2024-03-02T04:27:35;152494.91;;;5.51;100.00
10127;BME280;13080;42.608;23.362;2024-03-02T04:30:03;152519.47;;;5.60;100.00
10127;BME280;13080;42.608;23.362;2024-03-02T04:32:31;152487.16;;;5.48;100.00
10127;BME280;13080;42.608;23.362;2024-03-02T04:34:58;152488.44;;;5.48;100.00
10127;BME280;13080;42.608;23.362;2024-03-02T04:37:27;152491.03;;;5.49;100.00
10127;BME280;13080;42.608;23.362;2024-03-02T04:39:55;152466.47;;;5.39;100.00
10127;BME280;13080;42.608;23.362;2024-03-02T04:42:22;152439.28;;;5.29;100.00
10127;BME280;13080;42.608;23.362;2024-03-02T04:44:50;152431.53;;;5.26;100.00
10127;BME280;13080;42.608;23.362;2024-03-02T04:47:17;152426.38;;;5.24;100.00
10127;BME280;13080;42.608;23.362;2024-03-02T04:49:43;152421.19;;;5.21;100.00
10127;BME280;13080;42.608;23.362;2024-03-02T04:52:11;152427.66;;;5.24;100.00
10127;BME280;13080;42.608;23.362;2024-03-02T04:54:38;152443.19;;;5.30;100.00
10127;BME280;13080;42.608;23.362;2024-03-02T04:57:33;152461.28;;;5.37;100.00
10127;BME280;13080;42.608;23.362;2024-03-02T05:00:00;152458.72;;;5.36;100.00
10127;BME280;13080;42.608;23.362;2024-03-02T05:02:27;152460.00;;;5.37;100.00
10127;BME280;13080;42.608;23.362;2024-03-02T05:04:54;152454.81;;;5.35;100.00
10127;BME280;13080;42.608;23.362;2024-03-02T05:07:21;152441.91;;;5.30;100.00
10127;BME280;13080;42.608;23.362;2024-03-02T05:09:48;152449.63;;;5.33;100.00
10127;BME280;13080;42.608;23.362;2024-03-02T05:12:15;152463.91;;;5.38;100.00
10127;BME280;13080;42.608;23.362;2024-03-02T05:15:08;152461.28;;;5.37;100.00
10127;BME280;13080;42.608;23.362;2024-03-02T05:17:35;152472.91;;;5.42;100.00
10127;BME280;13080;42.608;23.362;2024-03-02T05:20:03;152454.81;;;5.35;100.00
10127;BME280;13080;42.608;23.362;2024-03-02T05:22:30;152480.72;;;5.45;100.00
10127;BME280;13080;42.608;23.362;2024-03-02T05:24:57;152488.44;;;5.48;100.00
10127;BME280;13080;42.608;23.362;2024-03-02T05:27:25;152472.91;;;5.42;100.00
10127;BME280;13080;42.608;23.362;2024-03-02T05:29:52;152465.19;;;5.39;100.00
10127;BME280;13080;42.608;23.362;2024-03-02T05:32:20;152472.91;;;5.42;100.00
10127;BME280;13080;42.608;23.362;2024-03-02T05:34:47;152472.91;;;5.42;100.00
10127;BME280;13080;42.608;23.362;2024-03-02T05:37:16;152465.19;;;5.39;100.00
10127;BME280;13080;42.608;23.362;2024-03-02T05:39:43;152488.44;;;5.48;100.00
10127;BME280;13080;42.608;23.362;2024-03-02T05:42:10;152465.19;;;5.39;100.00
10127;BME280;13080;42.608;23.362;2024-03-02T05:44:37;152475.53;;;5.43;100.00
10127;BME280;13080;42.608;23.362;2024-03-02T05:47:04;152478.09;;;5.44;100.00
10127;BME280;13080;42.608;23.362;2024-03-02T05:49:35;152501.38;;;5.53;100.00
10127;BME280;13080;42.608;23.362;2024-03-02T05:52:02;152505.28;;;5.55;100.00
10127;BME280;13080;42.608;23.362;2024-03-02T05:54:29;152487.16;;;5.48;100.00
10127;BME280;13080;42.608;23.362;2024-03-02T05:56:56;152509.16;;;5.56;100.00
10127;BME280;13080;42.608;23.362;2024-03-02T05:59:42;152529.84;;;5.65;100.00
10127;BME280;13080;42.608;23.362;2024-03-02T06:02:09;152515.63;;;5.59;100.00
10127;BME280;13080;42.608;23.362;2024-03-02T06:04:37;152520.81;;;5.61;100.00
10127;BME280;13080;42.608;23.362;2024-03-02T06:07:04;152501.38;;;5.53;100.00
10127;BME280;13080;42.608;23.362;2024-03-02T06:09:31;152513.00;;;5.58;100.00
10127;BME280;13080;42.608;23.362;2024-03-02T06:11:58;152522.09;;;5.61;100.00
10127;BME280;13080;42.608;23.362;2024-03-02T06:14:24;152505.28;;;5.55;100.00
10127;BME280;13080;42.608;23.362;2024-03-02T06:16:51;152506.56;;;5.55;100.00
10127;BME280;13080;42.608;23.362;2024-03-02T06:19:18;152496.19;;;5.51;100.00
10127;BME280;13080;42.608;23.362;2024-03-02T06:21:47;152536.31;;;5.67;100.00
10127;BME280;13080;42.608;23.362;2024-03-02T06:24:14;152522.09;;;5.61;100.00
10127;BME280;13080;42.608;23.362;2024-03-02T06:26:41;152514.34;;;5.58;100.00
10127;BME280;13080;42.608;23.362;2024-03-02T06:29:08;152516.91;;;5.59;100.00
10127;BME280;13080;42.608;23.362;2024-03-02T06:31:34;152536.31;;;5.67;100.00
10127;BME280;13080;42.608;23.362;2024-03-02T06:34:01;152541.47;;;5.69;100.00
10127;BME280;13080;42.608;23.362;2024-03-02T06:36:28;152548.00;;;5.72;100.00
10127;BME280;13080;42.608;23.362;2024-03-02T06:38:59;152537.63;;;5.68;100.00
10127;BME280;13080;42.608;23.362;2024-03-02T06:41:26;152535.03;;;5.67;100.00
10127;BME280;13080;42.608;23.362;2024-03-02T06:43:53;152540.19;;;5.69;100.00
10127;BME280;13080;42.608;23.362;2024-03-02T06:46:25;152533.72;;;5.66;100.00
10127;BME280;13080;42.608;23.362;2024-03-02T06:48:51;152529.84;;;5.65;100.00
10127;BME280;13080;42.608;23.362;2024-03-02T06:51:18;152536.31;;;5.67;100.00
10127;BME280;13080;42.608;23.362;2024-03-02T06:53:45;152533.72;;;5.66;100.00
10127;BME280;13080;42.608;23.362;2024-03-02T06:56:14;152523.38;;;5.62;100.00
10127;BME280;13080;42.608;23.362;2024-03-02T06:58:40;152544.09;;;5.70;100.00
10127;BME280;13080;42.608;23.362;2024-03-02T07:01:08;152557.03;;;5.75;100.00
10127;BME280;13080;42.608;23.362;2024-03-02T07:03:35;152569.94;;;5.80;100.00
10127;BME280;13080;42.608;23.362;2024-03-02T07:06:02;152571.28;;;5.81;100.00
10127;BME280;13080;42.608;23.362;2024-03-02T07:08:30;152576.47;;;5.83;100.00
10127;BME280;13080;42.608;23.362;2024-03-02T07:10:57;152633.44;;;6.06;100.00
10127;BME280;13080;42.608;23.362;2024-03-02T07:13:25;152632.13;;;6.05;100.00
10127;BME280;13080;42.608;23.362;2024-03-02T07:15:52;152623.09;;;6.01;100.00
10127;BME280;13080;42.608;23.362;2024-03-02T07:18:46;152661.91;;;6.17;100.00
10127;BME280;13080;42.608;23.362;2024-03-02T07:21:17;152637.28;;;6.07;100.00
10127;BME280;13080;42.608;23.362;2024-03-02T07:23:44;152647.66;;;6.11;100.00
10127;BME280;13080;42.608;23.362;2024-03-02T07:26:11;152656.72;;;6.15;100.00
10127;BME280;13080;42.608;23.362;2024-03-02T07:28:39;152636.00;;;6.07;100.00
10127;BME280;13080;42.608;23.362;2024-03-02T07:31:06;152681.31;;;6.24;100.00
10127;BME280;13080;42.608;23.362;2024-03-02T07:33:33;152646.38;;;6.11;100.00
10127;BME280;13080;42.608;23.362;2024-03-02T07:36:00;152652.84;;;6.13;100.00
10127;BME280;13080;42.608;23.362;2024-03-02T07:38:28;152692.97;;;6.29;100.00
10127;BME280;13080;42.608;23.362;2024-03-02T07:40:55;152658.03;;;6.15;100.00
10127;BME280;13080;42.608;23.362;2024-03-02T07:43:22;152650.28;;;6.12;100.00
10127;BME280;13080;42.608;23.362;2024-03-02T07:45:50;152659.31;;;6.16;100.00
10127;BME280;13080;42.608;23.362;2024-03-02T07:48:17;152665.75;;;6.18;100.00
10127;BME280;13080;42.608;23.362;2024-03-02T07:50:44;152674.84;;;6.22;100.00
10127;BME280;13080;42.608;23.362;2024-03-02T07:53:11;152700.72;;;6.32;100.00
10127;BME280;13080;42.608;23.362;2024-03-02T07:55:39;152714.97;;;6.38;100.00
10127;BME280;13080;42.608;23.362;2024-03-02T07:58:07;152700.72;;;6.32;100.00
10127;BME280;13080;42.608;23.362;2024-03-02T08:00:33;152709.78;;;6.36;100.00
10127;BME280;13080;42.608;23.362;2024-03-02T08:03:02;152696.84;;;6.31;100.00
10127;BME280;13080;42.608;23.362;2024-03-02T08:05:29;152696.84;;;6.31;100.00
10127;BME280;13080;42.608;23.362;2024-03-02T08:07:56;152683.94;;;6.26;100.00
10127;BME280;13080;42.608;23.362;2024-03-02T08:10:24;152696.84;;;6.31;100.00
10127;BME280;13080;42.608;23.362;2024-03-02T08:12:51;152692.97;;;6.29;100.00
10127;BME280;13080;42.608;23.362;2024-03-02T08:15:18;152721.44;;;6.40;100.00
10127;BME280;13080;42.608;23.362;2024-03-02T08:17:45;152731.81;;;6.44;100.00
10127;BME280;13080;42.608;23.362;2024-03-02T08:20:16;152734.38;;;6.45;100.00
10127;BME280;13080;42.608;23.362;2024-03-02T08:22:45;152744.72;;;6.50;100.00
10127;BME280;13080;42.608;23.362;2024-03-02T08:25:12;152743.44;;;6.49;100.00
10127;BME280;13080;42.608;23.362;2024-03-02T08:27:40;152764.19;;;6.57;100.00
10127;BME280;13080;42.608;23.362;2024-03-02T08:30:07;152778.41;;;6.63;100.00
10127;BME280;13080;42.608;23.362;2024-03-02T08:32:36;152810.78;;;6.76;100.00
10127;BME280;13080;42.608;23.362;2024-03-02T08:35:04;152812.06;;;6.76;100.00
10127;BME280;13080;42.608;23.362;2024-03-02T08:37:32;152808.16;;;6.75;100.00
10127;BME280;13080;42.608;23.362;2024-03-02T08:39:59;152822.44;;;6.80;100.00
10127;BME280;13080;42.608;23.362;2024-03-02T08:42:26;152817.25;;;6.78;100.00
10127;BME280;13080;42.608;23.362;2024-03-02T08:44:53;152863.88;;;6.97;100.00
10127;BME280;13080;42.608;23.362;2024-03-02T08:47:20;152853.50;;;6.93;100.00
10127;BME280;13080;42.608;23.362;2024-03-02T08:49:47;152878.13;;;7.02;100.00
10127;BME280;13080;42.608;23.362;2024-03-02T08:52:14;152917.00;;;7.18;100.00
10127;BME280;13080;42.608;23.362;2024-03-02T08:54:42;152980.47;;;7.43;100.00
10127;BME280;13080;42.608;23.362;2024-03-02T08:57:09;153001.22;;;7.51;100.00
10127;BME280;13080;42.608;23.362;2024-03-02T08:59:36;153066.00;;;7.77;100.00
10127;BME280;13080;42.608;23.362;2024-03-02T09:02:03;153089.31;;;7.86;100.00
10127;BME280;13080;42.608;23.362;2024-03-02T09:04:30;153097.06;;;7.89;100.00
10127;BME280;13080;42.608;23.362;2024-03-02T09:06:57;153094.50;;;7.88;100.00
10127;BME280;13080;42.608;23.362;2024-03-02T09:09:24;153106.16;;;7.93;100.00
10127;BME280;13080;42.608;23.362;2024-03-02T09:11:53;153135.97;;;8.04;100.00
10127;BME280;13080;42.608;23.362;2024-03-02T09:14:20;153178.78;;;8.21;100.00
10127;BME280;13080;42.608;23.362;2024-03-02T09:16:47;153207.28;;;8.32;100.00
10127;BME280;13080;42.608;23.362;2024-03-02T09:19:14;153242.34;;;8.46;100.00
10127;BME280;13080;42.608;23.362;2024-03-02T09:21:42;153243.63;;;8.47;100.00
10127;BME280;13080;42.608;23.362;2024-03-02T09:24:09;153320.16;;;8.77;100.00
10127;BME280;13080;42.608;23.362;2024-03-02T09:26:36;153316.25;;;8.76;100.00
10127;BME280;13080;42.608;23.362;2024-03-02T09:29:04;153337.03;;;8.84;97.91
10127;BME280;13080;42.608;23.362;2024-03-02T09:31:31;153356.47;;;8.91;98.72
10127;BME280;13080;42.608;23.362;2024-03-02T09:33:58;153362.94;;;8.94;97.57
10127;BME280;13080;42.608;23.362;2024-03-02T09:36:25;153359.09;;;8.92;98.01
10127;BME280;13080;42.608;23.362;2024-03-02T09:38:52;153353.88;;;8.90;96.63
10127;BME280;13080;42.608;23.362;2024-03-02T09:41:19;153299.41;;;8.69;96.37
10127;BME280;13080;42.608;23.362;2024-03-02T09:43:46;153329.22;;;8.81;95.56
10127;BME280;13080;42.608;23.362;2024-03-02T09:46:15;153270.88;;;8.58;94.33
10127;BME280;13080;42.608;23.362;2024-03-02T09:48:43;153252.72;;;8.50;97.99
10127;BME280;13080;42.608;23.362;2024-03-02T09:51:10;153237.16;;;8.44;97.49
10127;BME280;13080;42.608;23.362;2024-03-02T09:53:38;153239.78;;;8.45;97.66
10127;BME280;13080;42.608;23.362;2024-03-02T09:56:06;153198.19;;;8.29;98.83
10127;BME280;13080;42.608;23.362;2024-03-02T09:58:33;153208.56;;;8.33;99.65
10127;BME280;13080;42.608;23.362;2024-03-02T10:01:00;153242.34;;;8.46;100.00
10127;BME280;13080;42.608;23.362;2024-03-02T10:03:29;153225.44;;;8.40;98.93
10127;BME280;13080;42.608;23.362;2024-03-02T10:06:18;153176.16;;;8.20;100.00
10127;BME280;13080;42.608;23.362;2024-03-02T10:08:45;153163.19;;;8.15;100.00
10127;BME280;13080;42.608;23.362;2024-03-02T10:11:25;153172.28;;;8.19;99.15
10127;BME280;13080;42.608;23.362;2024-03-02T10:14:04;153091.94;;;7.87;100.00
10127;BME280;13080;42.608;23.362;2024-03-02T10:16:34;153091.94;;;7.87;100.00
10127;BME280;13080;42.608;23.362;2024-03-02T10:19:16;153123.03;;;7.99;100.00
10127;BME280;13080;42.608;23.362;2024-03-02T10:21:43;153086.75;;;7.85;100.00
10127;BME280;13080;42.608;23.362;2024-03-02T10:24:10;153034.88;;;7.64;100.00
10127;BME280;13080;42.608;23.362;2024-03-02T10:26:38;153042.69;;;7.67;100.00
10127;BME280;13080;42.608;23.362;2024-03-02T10:29:05;153059.53;;;7.74;100.00
10127;BME280;13080;42.608;23.362;2024-03-02T10:31:32;153014.16;;;7.56;100.00
10127;BME280;13080;42.608;23.362;2024-03-02T10:33:59;153034.88;;;7.64;100.00
10127;BME280;13080;42.608;23.362;2024-03-02T10:36:29;153021.94;;;7.59;100.00
10127;BME280;13080;42.608;23.362;2024-03-02T10:38:56;153041.38;;;7.67;100.00
10127;BME280;13080;42.608;23.362;2024-03-02T10:41:26;153032.28;;;7.63;100.00
10127;BME280;13080;42.608;23.362;2024-03-02T10:43:53;153012.88;;;7.56;100.00
10127;BME280;13080;42.608;23.362;2024-03-02T10:46:27;153073.75;;;7.80;100.00
10127;BME280;13080;42.608;23.362;2024-03-02T10:48:55;153023.22;;;7.60;100.00
10127;BME280;13080;42.608;23.362;2024-03-02T10:51:24;153024.53;;;7.60;100.00
10127;BME280;13080;42.608;23.362;2024-03-02T10:53:55;153047.84;;;7.69;100.00
10127;BME280;13080;42.608;23.362;2024-03-02T10:56:27;152992.13;;;7.47;100.00
10127;BME280;13080;42.608;23.362;2024-03-02T10:59:01;152981.75;;;7.43;100.00
10127;BME280;13080;42.608;23.362;2024-03-02T11:01:29;152984.38;;;7.44;100.00
10127;BME280;13080;42.608;23.362;2024-03-02T11:03:59;152972.66;;;7.40;100.00
10127;BME280;13080;42.608;23.362;2024-03-02T11:06:28;152967.53;;;7.38;100.00
10127;BME280;13080;42.608;23.362;2024-03-02T11:09:00;152964.91;;;7.37;100.00
10127;BME280;13080;42.608;23.362;2024-03-02T11:11:32;152951.97;;;7.32;100.00
10127;BME280;13080;42.608;23.362;2024-03-02T11:14:04;152985.66;;;7.45;100.00
10127;BME280;13080;42.608;23.362;2024-03-02T11:16:36;152962.34;;;7.36;100.00
10127;BME280;13080;42.608;23.362;2024-03-02T11:19:05;152959.72;;;7.35;100.00
10127;BME280;13080;42.608;23.362;2024-03-02T11:21:33;152937.69;;;7.26;100.00
10127;BME280;13080;42.608;23.362;2024-03-02T11:24:28;152931.22;;;7.23;100.00
10127;BME280;13080;42.608;23.362;2024-03-02T11:26:58;152927.31;;;7.22;100.00
10127;BME280;13080;42.608;23.362;2024-03-02T11:29:44;152964.91;;;7.37;100.00
10127;BME280;13080;42.608;23.362;2024-03-02T11:32:16;152958.44;;;7.34;100.00
10127;BME280;13080;42.608;23.362;2024-03-02T11:34:45;152924.75;;;7.21;100.00
10127;BME280;13080;42.608;23.362;2024-03-02T11:37:14;152955.88;;;7.33;100.00
10127;BME280;13080;42.608;23.362;2024-03-02T11:39:44;152959.72;;;7.35;100.00
10127;BME280;13080;42.608;23.362;2024-03-02T11:42:14;152900.16;;;7.11;100.00
10127;BME280;13080;42.608;23.362;2024-03-02T11:44:43;152904.03;;;7.13;100.00
10127;BME280;13080;42.608;23.362;2024-03-02T11:47:12;152906.63;;;7.14;100.00
10127;BME280;13080;42.608;23.362;2024-03-02T11:49:44;152884.59;;;7.05;100.00
10127;BME280;13080;42.608;23.362;2024-03-02T11:52:13;152876.84;;;7.02;100.00
10127;BME280;13080;42.608;23.362;2024-03-02T11:54:43;152882.00;;;7.04;100.00
10127;BME280;13080;42.608;23.362;2024-03-02T11:57:15;152913.09;;;7.16;100.00
10127;BME280;13080;42.608;23.362;2024-03-02T11:59:42;152894.97;;;7.09;100.00
10127;BME280;13080;42.608;23.362;2024-03-02T12:02:15;152862.59;;;6.96;100.00
10127;BME280;13080;42.608;23.362;2024-03-02T12:04:43;152866.47;;;6.98;100.00
10127;BME280;13080;42.608;23.362;2024-03-02T12:07:10;152867.78;;;6.98;100.00
10127;BME280;13080;42.608;23.362;2024-03-02T12:09:38;152848.34;;;6.91;100.00
10127;BME280;13080;42.608;23.362;2024-03-02T12:12:07;152827.63;;;6.82;100.00
10127;BME280;13080;42.608;23.362;2024-03-02T12:14:36;152827.63;;;6.82;100.00
10127;BME280;13080;42.608;23.362;2024-03-02T12:17:03;152835.38;;;6.85;100.00
10127;BME280;13080;42.608;23.362;2024-03-02T12:19:31;152812.06;;;6.76;100.00
10127;BME280;13080;42.608;23.362;2024-03-02T12:21:59;152803.03;;;6.73;100.00
10127;BME280;13080;42.608;23.362;2024-03-02T12:24:28;152819.88;;;6.79;100.00
10127;BME280;13080;42.608;23.362;2024-03-02T12:26:55;152821.16;;;6.80;100.00
10127;BME280;13080;42.608;23.362;2024-03-02T12:29:24;152835.38;;;6.85;100.00
10127;BME280;13080;42.608;23.362;2024-03-02T12:31:52;152830.19;;;6.83;100.00
10127;BME280;13080;42.608;23.362;2024-03-02T12:34:21;152850.94;;;6.92;100.00
10127;BME280;13080;42.608;23.362;2024-03-02T12:36:48;152860.00;;;6.95;100.00
10127;BME280;13080;42.608;23.362;2024-03-02T12:39:18;152850.94;;;6.92;100.00
10127;BME280;13080;42.608;23.362;2024-03-02T12:41:46;152891.06;;;7.07;100.00
10127;BME280;13080;42.608;23.362;2024-03-02T12:44:16;152919.56;;;7.19;100.00
10127;BME280;13080;42.608;23.362;2024-03-02T12:46:44;152888.50;;;7.06;100.00